createdAt,value
2022-12-13T00:01:45.180Z,54.05
2022-12-13T00:04:11.730Z,48.67
2022-12-13T00:06:37.993Z,49.13
2022-12-13T00:09:04.521Z,51.28
2022-12-13T00:11:30.940Z,52.65
2022-12-13T00:13:57.172Z,52.10
2022-12-13T00:16:23.960Z,50.47
2022-12-13T00:18:51.298Z,48.47
2022-12-13T00:21:18.897Z,51.45
2022-12-13T00:23:46.008Z,50.60
2022-12-13T00:26:13.729Z,50.10
2022-12-13T00:28:40.005Z,56.45
2022-12-13T00:31:34.282Z,54.17
2022-12-13T00:33:53.153Z,51.78
2022-12-13T00:36:19.642Z,54.63
2022-12-13T00:38:45.846Z,53.10
2022-12-13T00:41:19.251Z,49.92
2022-12-13T00:43:45.801Z,48.08
2022-12-13T00:46:17.245Z,49.42
2022-12-13T00:48:43.846Z,51.67
2022-12-13T00:51:11.424Z,49.80
2022-12-13T00:53:38.010Z,51.90
2022-12-13T00:56:05.121Z,51.85
2022-12-13T00:58:31.308Z,59.47
2022-12-13T01:01:04.923Z,57.80
2022-12-13T01:03:31.425Z,58.72
2022-12-13T01:06:14.881Z,61.10
2022-12-13T01:08:41.725Z,54.90
2022-12-13T01:11:08.117Z,53.15
2022-12-13T01:13:34.907Z,52.10
2022-12-13T01:16:02.186Z,58.85
2022-12-13T01:18:28.373Z,59.60
2022-12-13T01:20:59.189Z,62.08
2022-12-13T01:23:25.937Z,65.10
2022-12-13T01:25:52.551Z,60.05
2022-12-13T01:28:18.903Z,59.45
2022-12-13T01:30:45.199Z,64.75
2022-12-13T01:33:14.493Z,64.60
2022-12-13T01:35:40.939Z,62.03
2022-12-13T01:38:15.382Z,75.78
2022-12-13T01:40:43.577Z,59.92
2022-12-13T01:43:14.917Z,68.05
2022-12-13T01:45:41.592Z,60.38
2022-12-13T01:48:12.586Z,54.58
2022-12-13T01:50:41.416Z,52.85
2022-12-13T01:53:09.105Z,57.70
2022-12-13T01:55:41.489Z,53.53
2022-12-13T01:58:08.387Z,52.53
2022-12-13T02:00:35.719Z,52.45
2022-12-13T02:03:02.623Z,60.35
2022-12-13T02:05:28.913Z,56.88
2022-12-13T02:07:57.062Z,53.35
2022-12-13T02:10:23.413Z,54.97
2022-12-13T02:12:50.055Z,60.35
2022-12-13T02:15:17.538Z,58.90
2022-12-13T02:17:46.724Z,60.88
2022-12-13T02:20:22.208Z,61.75
2022-12-13T02:23:02.250Z,63.90
2022-12-13T02:25:47.162Z,63.95
2022-12-13T02:28:32.493Z,58.17
2022-12-13T02:31:06.578Z,63.53
2022-12-13T02:33:40.134Z,54.83
2022-12-13T02:36:08.626Z,58.90
2022-12-13T02:38:37.624Z,59.47
2022-12-13T02:41:06.786Z,55.20
2022-12-13T02:43:37.066Z,55.38
2022-12-13T02:46:12.556Z,59.15
2022-12-13T02:48:40.322Z,59.47
2022-12-13T02:51:08.678Z,53.75
2022-12-13T02:53:36.509Z,60.67
2022-12-13T02:56:02.764Z,57.88
2022-12-13T02:58:30.595Z,56.53
2022-12-13T03:01:04.947Z,54.03
2022-12-13T03:04:12.435Z,63.17
2022-12-13T03:07:11.084Z,56.78
2022-12-13T03:09:50.298Z,56.75
2022-12-13T03:12:56.977Z,56.03
2022-12-13T03:15:34.290Z,59.70
2022-12-13T03:18:04.426Z,59.85
2022-12-13T03:20:30.689Z,60.15
2022-12-13T03:22:57.165Z,60.10
2022-12-13T03:25:32.047Z,61.10
2022-12-13T03:28:01.095Z,59.05
2022-12-13T03:30:28.354Z,57.50
2022-12-13T03:32:54.534Z,66.95
2022-12-13T03:35:22.310Z,56.45
2022-12-13T03:37:49.089Z,62.50
2022-12-13T03:40:15.402Z,61.58
2022-12-13T03:42:41.603Z,60.85
2022-12-13T03:45:08.095Z,61.88
2022-12-13T03:47:34.317Z,66.57
2022-12-13T03:50:25.576Z,65.18
2022-12-13T03:52:47.550Z,60.47
2022-12-13T03:55:14.189Z,65.55
2022-12-13T03:57:40.629Z,58.10
2022-12-13T04:00:07.228Z,57.78
2022-12-13T04:02:33.475Z,61.35
2022-12-13T04:05:00.773Z,54.17
2022-12-13T04:07:27.286Z,56.88
2022-12-13T04:10:00.648Z,61.13
2022-12-13T04:12:48.306Z,64.20
2022-12-13T04:15:15.261Z,61.25
2022-12-13T04:17:41.729Z,67.55
2022-12-13T04:20:08.207Z,57.17
2022-12-13T04:22:34.417Z,62.08
2022-12-13T04:25:00.617Z,56.55
2022-12-13T04:27:26.829Z,57.30
2022-12-13T04:29:53.085Z,63.35
2022-12-13T04:32:26.929Z,62.05
2022-12-13T04:34:53.608Z,57.83
2022-12-13T04:37:27.664Z,54.88
2022-12-13T04:39:53.856Z,65.78
2022-12-13T04:42:27.283Z,59.72
2022-12-13T04:44:54.300Z,55.88
2022-12-13T04:47:20.562Z,55.92
2022-12-13T04:49:47.864Z,57.65
2022-12-13T04:52:14.340Z,61.55
2022-12-13T04:54:48.871Z,61.42
2022-12-13T04:57:22.363Z,60.90
2022-12-13T04:59:48.876Z,58.22
2022-12-13T05:02:15.159Z,62.88
2022-12-13T05:04:54.372Z,60.13
2022-12-13T05:07:20.957Z,65.75
2022-12-13T05:09:47.169Z,62.45
2022-12-13T05:12:22.922Z,54.30
2022-12-13T05:14:49.881Z,59.97
2022-12-13T05:17:16.687Z,60.42
2022-12-13T05:19:43.089Z,62.38
2022-12-13T05:22:19.938Z,63.47
2022-12-13T05:24:46.915Z,61.47
2022-12-13T05:27:23.747Z,68.18
2022-12-13T05:29:56.312Z,58.92
2022-12-13T05:32:33.606Z,70.53
2022-12-13T05:35:09.688Z,67.03
2022-12-13T05:37:35.879Z,63.80
2022-12-13T05:40:02.255Z,65.85
2022-12-13T05:42:28.450Z,65.10
2022-12-13T05:44:54.639Z,56.30
2022-12-13T05:47:20.869Z,66.22
2022-12-13T05:49:47.061Z,66.00
2022-12-13T05:52:17.686Z,61.03
2022-12-13T05:54:43.883Z,64.40
2022-12-13T05:57:10.494Z,67.53
2022-12-13T05:59:36.704Z,57.63
2022-12-13T06:02:03.028Z,60.97
2022-12-13T06:04:29.500Z,58.30
2022-12-13T06:06:55.710Z,60.35
2022-12-13T06:09:22.203Z,60.83
2022-12-13T06:11:49.756Z,56.78
2022-12-13T06:14:22.261Z,54.67
2022-12-13T06:16:49.709Z,55.67
2022-12-13T06:19:15.959Z,57.08
2022-12-13T06:21:46.278Z,63.88
2022-12-13T06:24:16.634Z,57.10
2022-12-13T06:26:45.090Z,62.38
2022-12-13T06:29:12.649Z,62.10
2022-12-13T06:31:51.606Z,59.22
2022-12-13T06:34:17.839Z,64.28
2022-12-13T06:36:44.058Z,53.22
2022-12-13T06:39:10.356Z,54.88
2022-12-13T06:41:36.887Z,54.92
2022-12-13T06:44:03.393Z,60.33
2022-12-13T06:46:29.660Z,62.25
2022-12-13T06:48:55.990Z,55.45
2022-12-13T06:51:22.992Z,60.28
2022-12-13T06:53:58.487Z,63.28
2022-12-13T06:56:27.185Z,53.38
2022-12-13T06:58:53.413Z,62.05
2022-12-13T07:01:27.924Z,59.33
2022-12-13T07:04:03.824Z,61.50
2022-12-13T07:06:30.035Z,60.15
2022-12-13T07:08:57.086Z,58.90
2022-12-13T07:11:30.274Z,55.03
2022-12-13T07:13:56.552Z,61.65
2022-12-13T07:16:23.784Z,59.58
2022-12-13T07:19:00.855Z,59.35
2022-12-13T07:21:28.014Z,58.08
2022-12-13T07:23:55.309Z,55.65
2022-12-13T07:26:22.203Z,55.38
2022-12-13T07:28:54.471Z,51.67
2022-12-13T07:31:21.673Z,53.92
2022-12-13T07:33:47.918Z,54.97
2022-12-13T07:36:15.349Z,53.08
2022-12-13T07:38:42.046Z,58.58
2022-12-13T07:41:11.429Z,57.08
2022-12-13T07:43:37.750Z,59.25
2022-12-13T07:46:05.544Z,61.42
2022-12-13T07:48:32.205Z,55.85
2022-12-13T07:51:03.056Z,60.55
2022-12-13T07:53:29.259Z,54.45
2022-12-13T07:56:03.540Z,49.55
2022-12-13T07:58:33.339Z,56.58
2022-12-13T08:01:00.627Z,55.65
2022-12-13T08:03:27.419Z,54.85
2022-12-13T08:06:07.772Z,52.78
2022-12-13T08:08:34.415Z,59.83
2022-12-13T08:11:01.475Z,57.88
2022-12-13T08:13:27.926Z,57.60
2022-12-13T08:15:57.541Z,59.03
2022-12-13T08:18:23.830Z,54.33
2022-12-13T08:20:50.016Z,55.40
2022-12-13T08:23:16.225Z,59.22
2022-12-13T08:25:42.445Z,62.78
2022-12-13T08:28:08.654Z,58.53
2022-12-13T08:30:35.062Z,55.33
2022-12-13T08:33:05.345Z,49.67
2022-12-13T08:35:34.313Z,52.13
2022-12-13T08:38:01.233Z,53.72
2022-12-13T08:40:27.522Z,49.53
2022-12-13T08:42:55.006Z,54.85
2022-12-13T08:45:23.731Z,53.47
2022-12-13T08:47:49.921Z,51.88
2022-12-13T08:50:16.225Z,53.58
2022-12-13T08:52:44.498Z,50.25
2022-12-13T08:55:11.418Z,54.05
2022-12-13T08:57:38.091Z,50.47
2022-12-13T09:00:05.192Z,55.63
2022-12-13T09:02:31.468Z,53.45
2022-12-13T09:05:04.889Z,51.97
2022-12-13T09:07:31.083Z,54.42
2022-12-13T09:09:57.271Z,49.08
2022-12-13T09:12:29.876Z,54.17
2022-12-13T09:15:01.206Z,50.97
2022-12-13T09:17:29.448Z,51.92
2022-12-13T09:20:09.739Z,48.10
2022-12-13T09:22:51.127Z,53.35
2022-12-13T09:25:23.957Z,50.45
2022-12-13T09:27:50.644Z,47.28
2022-12-13T09:30:16.897Z,49.13
2022-12-13T09:32:49.489Z,47.00
2022-12-13T09:35:15.942Z,48.13
2022-12-13T09:37:45.874Z,73.00
2022-12-13T09:40:25.752Z,44.33
2022-12-13T09:43:12.699Z,67.85
2022-12-13T09:45:42.892Z,41.85
2022-12-13T09:48:22.647Z,46.10
2022-12-13T09:50:58.359Z,47.53
2022-12-13T09:53:36.727Z,46.65
2022-12-13T09:56:10.392Z,47.85
2022-12-13T09:58:37.371Z,46.35
2022-12-13T10:01:04.991Z,45.65
2022-12-13T10:03:31.204Z,43.00
2022-12-13T10:05:58.995Z,43.22
2022-12-13T10:08:29.573Z,42.90
2022-12-13T10:10:55.782Z,43.28
2022-12-13T10:13:41.422Z,46.03
2022-12-13T10:16:13.503Z,43.53
2022-12-13T10:18:41.586Z,39.88
2022-12-13T10:21:10.222Z,40.17
2022-12-13T10:24:06.790Z,38.88
2022-12-13T10:26:24.532Z,37.25
2022-12-13T10:29:00.991Z,34.30
2022-12-13T10:31:27.234Z,37.38
2022-12-13T10:33:55.477Z,31.80
2022-12-13T10:36:35.588Z,33.42
2022-12-13T10:39:02.437Z,32.15
2022-12-13T10:41:36.133Z,28.65
2022-12-13T10:44:11.431Z,30.75
2022-12-13T10:46:39.206Z,28.70
2022-12-13T10:49:15.224Z,30.13
2022-12-13T10:51:42.451Z,28.05
2022-12-13T10:54:15.415Z,25.30
2022-12-13T10:56:48.762Z,29.33
2022-12-13T10:59:18.044Z,26.08
2022-12-13T11:01:44.329Z,29.85
2022-12-13T11:04:27.184Z,28.58
2022-12-13T11:06:53.907Z,28.33
2022-12-13T11:09:27.675Z,27.25
2022-12-13T11:11:58.930Z,26.48
2022-12-13T11:14:32.160Z,26.45
2022-12-13T11:17:00.485Z,24.65
2022-12-13T11:19:44.090Z,35.42
2022-12-13T11:22:18.606Z,27.60
2022-12-13T11:24:49.083Z,23.42
2022-12-13T11:27:34.097Z,27.88
2022-12-13T11:30:08.214Z,26.10
2022-12-13T11:32:42.452Z,23.58
2022-12-13T11:35:16.273Z,27.00
2022-12-13T11:37:50.454Z,24.65
2022-12-13T11:40:20.340Z,23.02
2022-12-13T11:42:46.508Z,23.10
2022-12-13T11:45:23.778Z,22.10
2022-12-13T11:48:01.869Z,25.55
2022-12-13T11:50:42.934Z,23.10
2022-12-13T11:53:18.869Z,24.88
2022-12-13T11:55:48.682Z,25.70
2022-12-13T11:59:01.179Z,24.52
2022-12-13T12:01:27.547Z,27.67
2022-12-13T12:04:12.697Z,23.98
2022-12-13T12:06:42.438Z,24.25
2022-12-13T12:09:16.049Z,25.95
2022-12-13T12:11:46.146Z,28.50
2022-12-13T12:14:15.109Z,25.90
2022-12-13T12:16:50.455Z,27.67
2022-12-13T12:19:18.188Z,25.50
2022-12-13T12:22:13.862Z,25.33
2022-12-13T12:24:53.325Z,27.48
2022-12-13T12:27:23.154Z,25.88
2022-12-13T12:29:56.673Z,24.73
2022-12-13T12:32:31.191Z,22.77
2022-12-13T12:35:15.967Z,26.75
2022-12-13T12:37:49.089Z,24.50
2022-12-13T12:40:52.138Z,31.40
2022-12-13T12:43:23.190Z,27.15
2022-12-13T12:46:08.419Z,28.87
2022-12-13T12:48:57.019Z,27.95
2022-12-13T12:51:48.217Z,26.05
2022-12-13T12:54:33.081Z,29.63
2022-12-13T12:57:07.342Z,24.52
2022-12-13T12:59:40.079Z,29.27
2022-12-13T13:02:09.318Z,27.25
2022-12-13T13:04:42.151Z,25.60
2022-12-13T13:07:23.080Z,25.60
2022-12-13T13:09:50.653Z,25.55
2022-12-13T13:14:56.854Z,24.45
2022-12-13T13:17:25.919Z,25.50
2022-12-13T13:20:12.339Z,25.92
2022-12-13T13:22:44.105Z,24.02
2022-12-13T13:25:21.304Z,23.30
2022-12-13T13:27:48.599Z,23.95
2022-12-13T13:30:19.368Z,29.85
2022-12-13T13:32:45.918Z,26.38
2022-12-13T13:35:30.197Z,24.38
2022-12-13T13:37:57.386Z,25.23
2022-12-13T13:40:31.417Z,27.60
2022-12-13T13:43:06.918Z,24.42
2022-12-13T13:45:53.888Z,24.08
2022-12-13T13:48:40.220Z,22.73
2022-12-13T13:51:25.105Z,26.30
2022-12-13T13:53:51.394Z,25.92
2022-12-13T13:56:40.698Z,24.83
2022-12-13T13:59:25.597Z,25.30
2022-12-13T14:02:01.014Z,23.67
2022-12-13T14:04:27.618Z,27.38
2022-12-13T14:07:12.383Z,26.50
2022-12-13T14:09:57.412Z,23.25
2022-12-13T14:12:42.268Z,28.73
2022-12-13T14:15:17.594Z,28.08
2022-12-13T14:17:46.843Z,24.60
2022-12-13T14:20:21.314Z,25.55
2022-12-13T14:22:53.124Z,24.08
2022-12-13T14:25:31.521Z,29.08
2022-12-13T14:28:00.960Z,25.02
2022-12-13T14:30:29.341Z,29.02
2022-12-13T14:32:56.611Z,25.13
2022-12-13T14:35:30.430Z,25.50
2022-12-13T14:37:59.012Z,25.92
2022-12-13T14:40:28.150Z,26.83
2022-12-13T14:42:57.102Z,26.15
2022-12-13T14:45:25.139Z,26.05
2022-12-13T14:47:53.268Z,27.17
2022-12-13T14:50:19.517Z,29.33
2022-12-13T14:52:46.831Z,27.13
2022-12-13T14:55:27.975Z,28.13
2022-12-13T14:57:55.322Z,28.25
2022-12-13T15:00:27.701Z,26.75
2022-12-13T15:02:56.895Z,26.83
2022-12-13T15:05:28.844Z,28.63
2022-12-13T15:07:55.891Z,27.02
2022-12-13T15:10:25.128Z,25.48
2022-12-13T15:12:52.360Z,25.10
2022-12-13T15:15:29.612Z,26.30
2022-12-13T15:18:14.574Z,28.77
2022-12-13T15:20:41.489Z,26.65
2022-12-13T15:23:18.867Z,24.27
2022-12-13T15:25:45.893Z,22.92
2022-12-13T15:28:21.175Z,24.33
2022-12-13T15:30:48.529Z,27.23
2022-12-13T15:33:34.109Z,27.52
2022-12-13T15:36:05.774Z,26.95
2022-12-13T15:38:32.035Z,30.08
2022-12-13T15:41:00.547Z,26.45
2022-12-13T15:43:37.907Z,27.75
2022-12-13T15:46:06.410Z,26.17
2022-12-13T15:48:34.997Z,24.25
2022-12-13T15:51:04.968Z,27.27
2022-12-13T15:53:31.914Z,27.98
2022-12-13T15:55:58.352Z,27.30
2022-12-13T15:58:31.262Z,26.63
2022-12-13T16:00:58.364Z,29.55
2022-12-13T16:03:25.587Z,26.77
2022-12-13T16:05:55.802Z,29.70
2022-12-13T16:08:25.065Z,29.70
2022-12-13T16:10:52.026Z,26.67
2022-12-13T16:13:27.263Z,28.58
2022-12-13T16:16:00.431Z,25.73
2022-12-13T16:18:46.024Z,24.60
2022-12-13T16:21:12.389Z,26.52
2022-12-13T16:23:38.609Z,29.58
2022-12-13T16:26:08.903Z,27.13
2022-12-13T16:28:35.727Z,26.85
2022-12-13T16:31:22.022Z,28.50
2022-12-13T16:33:48.552Z,28.02
2022-12-13T16:36:14.795Z,27.27
2022-12-13T16:38:41.078Z,27.02
2022-12-13T16:41:08.975Z,31.08
2022-12-13T16:43:46.394Z,27.20
2022-12-13T16:47:15.327Z,28.60
2022-12-13T16:49:01.050Z,26.17
2022-12-13T16:51:27.253Z,26.50
2022-12-13T16:53:53.455Z,30.50
2022-12-13T16:56:21.595Z,26.65
2022-12-13T16:58:50.267Z,28.63
2022-12-13T17:01:19.782Z,25.00
2022-12-13T17:03:46.253Z,28.30
2022-12-13T17:06:13.008Z,27.25
2022-12-13T17:08:39.298Z,30.25
2022-12-13T17:11:06.869Z,26.85
2022-12-13T17:13:33.178Z,24.65
2022-12-13T17:15:59.956Z,30.58
2022-12-13T17:18:26.318Z,32.78
2022-12-13T17:20:58.261Z,28.30
2022-12-13T17:23:25.106Z,27.77
2022-12-13T17:25:58.337Z,29.30
2022-12-13T17:28:25.131Z,27.90
2022-12-13T17:30:54.898Z,26.55
2022-12-13T17:33:21.548Z,26.75
2022-12-13T17:35:47.772Z,28.23
2022-12-13T17:38:14.163Z,30.15
2022-12-13T17:40:40.365Z,26.10
2022-12-13T17:43:07.313Z,24.65
2022-12-13T17:45:33.687Z,29.73
2022-12-13T17:48:00.005Z,31.38
2022-12-13T17:50:26.831Z,28.88
2022-12-13T17:52:53.023Z,26.38
2022-12-13T17:55:19.211Z,25.73
2022-12-13T17:57:45.413Z,29.17
2022-12-13T18:00:11.989Z,27.98
2022-12-13T18:02:39.246Z,24.70
2022-12-13T18:05:06.109Z,22.83
2022-12-13T18:07:32.405Z,25.40
2022-12-13T18:09:58.672Z,22.30
2022-12-13T18:12:24.876Z,26.67
2022-12-13T18:14:51.089Z,29.17
2022-12-13T18:17:19.101Z,25.23
2022-12-13T18:19:45.297Z,23.60
2022-12-13T18:22:11.713Z,25.73
2022-12-13T18:24:38.286Z,25.23
2022-12-13T18:27:04.461Z,22.17
2022-12-13T18:29:30.743Z,27.13
2022-12-13T18:31:57.006Z,22.73
2022-12-13T18:34:23.210Z,24.75
2022-12-13T18:36:49.463Z,22.05
2022-12-13T18:39:17.139Z,25.05
2022-12-13T18:41:43.396Z,22.27
2022-12-13T18:44:10.081Z,25.00
2022-12-13T18:46:37.230Z,25.33
2022-12-13T18:49:03.985Z,26.50
2022-12-13T18:51:30.219Z,27.10
2022-12-13T18:53:56.680Z,21.60
2022-12-13T18:56:23.011Z,26.23
2022-12-13T18:58:49.699Z,25.98
2022-12-13T19:01:16.583Z,28.02
2022-12-13T19:03:45.713Z,25.52
2022-12-13T19:06:17.088Z,23.88
2022-12-13T19:08:43.532Z,25.20
2022-12-13T19:11:10.675Z,25.65
2022-12-13T19:13:36.882Z,25.52
2022-12-13T19:16:05.067Z,24.17
2022-12-13T19:18:31.331Z,23.50
2022-12-13T19:20:57.597Z,23.10
2022-12-13T19:23:24.461Z,24.77
2022-12-13T19:25:50.892Z,23.60
2022-12-13T19:28:19.898Z,25.92
2022-12-13T19:30:46.746Z,25.67
2022-12-13T19:33:13.299Z,23.38
2022-12-13T19:35:43.144Z,24.38
2022-12-13T19:38:09.822Z,22.05
2022-12-13T19:40:41.058Z,27.55
2022-12-13T19:45:33.606Z,26.75
2022-12-13T19:47:59.949Z,24.13
2022-12-13T19:50:26.215Z,26.52
2022-12-13T19:52:52.624Z,25.88
2022-12-13T19:55:19.037Z,24.52
2022-12-13T19:57:45.231Z,26.85
2022-12-13T20:00:11.843Z,26.30
2022-12-13T20:02:38.111Z,30.65
2022-12-13T20:05:04.598Z,25.98
2022-12-13T20:07:30.831Z,23.83
2022-12-13T20:09:57.106Z,24.45
2022-12-13T20:12:23.418Z,27.73
2022-12-13T20:14:49.975Z,26.73
2022-12-13T20:17:16.187Z,24.30
2022-12-13T20:19:42.489Z,25.15
2022-12-13T20:22:08.951Z,27.33
2022-12-13T20:24:35.162Z,26.83
2022-12-13T20:27:01.828Z,25.00
2022-12-13T20:29:28.043Z,27.75
2022-12-13T20:31:54.325Z,24.92
2022-12-13T20:34:20.668Z,27.08
2022-12-13T20:36:46.908Z,27.77
2022-12-13T20:39:14.769Z,25.60
2022-12-13T20:41:41.030Z,24.20
2022-12-13T20:44:08.991Z,26.30
2022-12-13T20:46:35.590Z,24.83
2022-12-13T20:49:03.203Z,25.95
2022-12-13T20:51:29.855Z,27.67
2022-12-13T20:53:56.485Z,25.35
2022-12-13T20:56:24.491Z,26.83
2022-12-13T20:58:50.838Z,28.33
2022-12-13T21:01:21.538Z,25.67
2022-12-13T21:03:47.948Z,23.80
2022-12-13T21:06:14.237Z,25.60
2022-12-13T21:08:52.474Z,26.70
2022-12-13T21:11:25.712Z,26.83
2022-12-13T21:13:53.474Z,25.40
2022-12-13T21:16:20.082Z,28.05
2022-12-13T21:18:46.437Z,21.73
2022-12-13T21:21:12.711Z,25.40
2022-12-13T21:23:38.889Z,24.70
2022-12-13T21:26:05.300Z,29.08
2022-12-13T21:28:31.491Z,26.52
2022-12-13T21:31:01.575Z,26.90
2022-12-13T21:33:28.802Z,26.00
2022-12-13T21:35:55.618Z,29.05
2022-12-13T21:38:21.829Z,24.38
2022-12-13T21:40:48.720Z,26.25
2022-12-13T21:43:15.371Z,25.23
2022-12-13T21:45:41.739Z,26.40
2022-12-13T21:48:07.996Z,27.25
2022-12-13T21:50:34.334Z,37.83
2022-12-13T21:53:00.650Z,31.10
2022-12-13T21:55:42.212Z,29.42
2022-12-13T21:58:27.802Z,26.52
2022-12-13T22:00:54.316Z,25.10
2022-12-13T22:03:20.550Z,29.02
2022-12-13T22:05:46.737Z,25.00
2022-12-13T22:08:12.950Z,24.40
2022-12-13T22:10:59.146Z,26.80
2022-12-13T22:13:25.350Z,23.23
2022-12-13T22:15:51.584Z,23.85
2022-12-13T22:18:17.840Z,24.17
2022-12-13T22:20:44.080Z,26.65
2022-12-13T22:23:10.308Z,25.27
2022-12-13T22:25:36.572Z,23.95
2022-12-13T22:28:02.854Z,23.45
2022-12-13T22:30:29.065Z,24.02
2022-12-13T22:32:55.282Z,24.40
2022-12-13T22:35:21.503Z,21.92
2022-12-13T22:37:48.742Z,23.27
2022-12-13T22:40:15.221Z,21.85
2022-12-13T22:42:41.435Z,23.65
2022-12-13T22:45:14.637Z,23.08
2022-12-13T22:47:40.851Z,22.48
2022-12-13T22:50:07.553Z,21.52
2022-12-13T22:52:34.312Z,21.70
2022-12-13T22:55:00.592Z,23.17
2022-12-13T22:57:26.807Z,24.33
2022-12-13T22:59:52.993Z,19.98
2022-12-13T23:02:19.255Z,20.80
2022-12-13T23:04:45.506Z,21.83
2022-12-13T23:07:11.709Z,24.55
2022-12-13T23:09:37.898Z,21.60
2022-12-13T23:12:22.852Z,24.05
2022-12-13T23:14:49.084Z,23.75
2022-12-13T23:17:15.281Z,22.52
2022-12-13T23:19:49.111Z,20.38
2022-12-13T23:22:17.594Z,22.10
2022-12-13T23:24:43.833Z,23.60
2022-12-13T23:27:10.105Z,20.70
2022-12-13T23:29:36.423Z,20.30
2022-12-13T23:32:02.634Z,18.00
2022-12-13T23:34:28.822Z,19.33
2022-12-13T23:36:55.006Z,19.45
2022-12-13T23:39:21.211Z,18.95
2022-12-13T23:41:47.430Z,21.05
2022-12-13T23:44:13.847Z,20.80
2022-12-13T23:46:40.252Z,20.52
2022-12-13T23:49:06.541Z,19.15
2022-12-13T23:51:33.102Z,19.33
2022-12-13T23:53:59.351Z,17.83
2022-12-13T23:56:25.886Z,18.10
2022-12-13T23:58:52.199Z,18.27
